Flight Track Log - Related Links

Times and Time Zones

All times are in EDT time to prevent confusion due to time zone crossing. See the N469S flight status page for this flight to view local times or setup timezone preferences in your user account.

Time Position Orientation Groundspeed Altitude Reporting Facility
EDT Latitude Longitude Course Direction KTS MPH feet Rate Location/Type
Thu 03:42:45 PM 38.5333 -90.1667 27° Northeast 130 150 2,100  Level Gateway (St. Louis) TRACON
Thu 03:43:45 PM 38.5000 -90.1167 130° Southeast 164 189 2,400 125 Climbing Gateway (St. Louis) TRACON
Thu 03:44:21 PM 38.4867 -90.1061 148° Southeast 149 171 2,300 600 Descending Kansas City Center
Thu 03:46:25 PM 38.5300 -90.0039 62° Northeast 163 188 4,000 584 Climbing Kansas City Center
Thu 03:47:26 PM 38.5481 -89.9511 66° East 161 185 4,100 339 Climbing Kansas City Center
Thu 03:48:00 PM 38.8558 -89.9406 27° Northeast  Level FlightAware Approximate
Thu 03:48:29 PM 38.5686 -89.8914 66° East 171 197 4,700  Level Kansas City Center
Thu 03:49:30 PM 38.5872 -89.8375 66° East 172 198 5,600 919 Climbing Kansas City Center
Thu 03:50:33 PM 38.6097 -89.7736 66° East 167 192 6,600 871 Climbing Kansas City Center
Thu 03:51:34 PM 38.6267 -89.7211 68° East 165 190 7,400 878 Climbing Kansas City Center
Thu 03:52:36 PM 38.6464 -89.6614 67° East 163 188 8,400 803 Climbing Kansas City Center
Thu 03:53:41 PM 38.6650 -89.6086 66° East 164 189 9,100 672 Climbing Kansas City Center
Thu 03:54:41 PM 38.6833 -89.5539 67° East 167 192 9,800 744 Climbing Kansas City Center
Thu 03:55:42 PM 38.7033 -89.4931 67° East 171 197 10,600 768 Climbing Kansas City Center
Thu 03:56:46 PM 38.7217 -89.4381 67° East 169 194 11,400 726 Climbing Kansas City Center
Thu 03:57:46 PM 38.7433 -89.3756 66° East 177 204 12,100 639 Climbing Kansas City Center
Thu 03:58:48 PM 38.7636 -89.3144 67° East 184 212 12,700 476 Climbing Kansas City Center
Thu 03:59:52 PM 38.7861 -89.2486 66° East 188 216 13,100 188 Climbing Kansas City Center
Thu 04:00:56 PM 38.8086 -89.1792 67° East 210 242 13,100  Level Kansas City Center
Thu 04:01:56 PM 38.8344 -89.0992 67° East 224 258 13,100  Level Kansas City Center
Thu 04:03:00 PM 38.8597 -89.0225 67° East 233 268 13,100  Level Kansas City Center
Thu 04:04:01 PM 38.8842 -88.9514 66° East 229 264 13,100  Level Kansas City Center
Thu 04:05:02 PM 38.9097 -88.8756 67° East 233 268 13,100  Level Kansas City Center
Thu 04:06:06 PM 38.9339 -88.8014 67° East 227 261 13,100  Level Kansas City Center
Thu 04:07:07 PM 38.9631 -88.7103 68° East 230 265 13,100  Level Kansas City Center
Thu 04:08:10 PM 38.9875 -88.6347 67° East 230 265 13,100  Level Kansas City Center
Thu 04:09:11 PM 39.0122 -88.5611 67° East 230 265 13,100  Level Kansas City Center
Thu 04:10:14 PM 39.0369 -88.4850 67° East 230 265 13,100  Level Kansas City Center
Thu 04:11:16 PM 39.0628 -88.4100 66° East 229 264 13,100  Level Kansas City Center
Thu 04:12:06 PM 39.0853 -88.3361 69° East 227 261 13,100  Level Indianapolis Center
Thu 04:13:08 PM 39.1097 -88.2597 68° East 229 264 13,100  Level Indianapolis Center
Thu 04:14:10 PM 39.1339 -88.1828 68° East 230 265 13,100  Level Indianapolis Center
Thu 04:15:25 PM 39.1650 -88.0911 66° East 229 264 13,100  Level Kansas City Center
Thu 04:16:25 PM 39.1889 -88.0158 68° East 227 261 13,100  Level Kansas City Center
Thu 04:17:29 PM 39.2128 -87.9381 68° East 231 266 13,100  Level Kansas City Center
Thu 04:18:30 PM 39.2381 -87.8614 67° East 231 266 13,100  Level Kansas City Center
Thu 04:19:21 PM 39.2606 -87.7864 69° East 229 264 13,100  Level Indianapolis Center
Thu 04:20:23 PM 39.2853 -87.7119 67° East 227 261 13,100  Level Indianapolis Center
Thu 04:21:25 PM 39.3086 -87.6342 69° East 229 264 13,100  Level Indianapolis Center
Thu 04:22:27 PM 39.3350 -87.5547 67° East 225 259 13,100  Level Indianapolis Center
Thu 04:23:29 PM 39.3583 -87.4769 69° East 229 264 13,100  Level Indianapolis Center
Thu 04:24:31 PM 39.3836 -87.4008 67° East 230 265 13,100  Level Indianapolis Center
Thu 04:25:33 PM 39.4053 -87.3247 70° East 226 260 13,100 -48 Level Indianapolis Center
Thu 04:26:35 PM 39.4300 -87.2475 67° East 229 264 13,000 -339 Descending Indianapolis Center
Thu 04:27:37 PM 39.4367 -87.1586 84° East 245 282 12,400 -677 Descending Indianapolis Center
Thu 04:28:39 PM 39.4497 -87.0519 81° East 255 293 11,600 -726 Descending Indianapolis Center
Thu 04:29:41 PM 39.4628 -86.9622 79° East 253 291 10,900 -677 Descending Indianapolis Center
Thu 04:30:43 PM 39.4817 -86.8756 74° East 252 290 10,200 -726 Descending Indianapolis Center
Thu 04:31:45 PM 39.5119 -86.7958 64° Northeast 246 283 9,400 -726 Descending Indianapolis Center
Thu 04:32:47 PM 39.5417 -86.7175 64° Northeast 243 280 8,700 -823 Descending Indianapolis Center
Thu 04:33:49 PM 39.5706 -86.6381 65° Northeast 241 277 7,700 -1,056 Descending Indianapolis Center
Thu 04:34:52 PM 39.6039 -86.5492 64° Northeast 236 272 6,500 -864 Descending Indianapolis Center
Thu 04:35:54 PM 39.6303 -86.4767 65° Northeast 228 262 5,900 -290 Descending Indianapolis Center
Thu 04:36:56 PM 39.6525 -86.4239 61° Northeast 208 239 5,900  Level Indianapolis Center

Login

Don't have an account? Register now (free) for customized features, flight alerts, and more!